createdAt,value
2022-10-14T00:01:16.124Z,11.90
2022-10-14T00:03:44.433Z,11.77
2022-10-14T00:06:16.151Z,11.76
2022-10-14T00:08:45.179Z,11.65
2022-10-14T00:11:18.842Z,11.66
2022-10-14T00:13:47.276Z,11.78
2022-10-14T00:16:22.416Z,11.73
2022-10-14T00:18:50.712Z,11.71
2022-10-14T00:21:19.151Z,11.73
2022-10-14T00:23:47.976Z,11.72
2022-10-14T00:26:18.574Z,11.62
2022-10-14T00:28:47.132Z,11.55
2022-10-14T00:31:15.598Z,11.52
2022-10-14T00:33:46.894Z,11.56
2022-10-14T00:36:17.372Z,11.63
2022-10-14T00:38:46.265Z,11.66
2022-10-14T00:41:17.148Z,11.70
2022-10-14T00:43:57.503Z,11.71
2022-10-14T00:46:26.565Z,11.74
2022-10-14T00:49:06.915Z,11.75
2022-10-14T00:51:36.140Z,11.78
2022-10-14T00:54:04.395Z,11.73
2022-10-14T00:56:33.311Z,11.84
2022-10-14T00:59:03.542Z,11.79
2022-10-14T01:01:31.469Z,11.71
2022-10-14T01:03:59.224Z,11.71
2022-10-14T01:06:42.115Z,11.63
2022-10-14T01:09:18.005Z,11.63
2022-10-14T01:12:16.247Z,11.63
2022-10-14T01:14:52.399Z,11.57
2022-10-14T01:17:29.357Z,11.57
2022-10-14T01:20:32.331Z,11.49
2022-10-14T01:23:28.041Z,11.55
2022-10-14T01:26:04.673Z,11.48
2022-10-14T01:28:43.781Z,11.48
2022-10-14T01:31:20.527Z,11.56
2022-10-14T01:33:54.100Z,11.58
2022-10-14T01:36:25.597Z,11.54
2022-10-14T01:38:58.188Z,11.52
2022-10-14T01:41:29.867Z,11.49
2022-10-14T01:44:02.622Z,11.45
2022-10-14T01:46:34.639Z,11.42
2022-10-14T01:49:08.178Z,11.34
2022-10-14T01:51:43.264Z,11.27
2022-10-14T01:54:15.239Z,11.28
2022-10-14T01:56:47.201Z,11.27
2022-10-14T01:59:17.378Z,11.15
2022-10-14T02:01:48.030Z,11.12
2022-10-14T02:04:18.886Z,11.10
2022-10-14T02:06:51.880Z,11.07
2022-10-14T02:09:25.134Z,11.10
2022-10-14T02:12:04.621Z,11.09
2022-10-14T02:14:40.903Z,11.07
2022-10-14T02:17:20.140Z,11.16
2022-10-14T02:19:52.067Z,11.25
2022-10-14T02:22:26.346Z,11.30
2022-10-14T02:24:57.584Z,11.24
2022-10-14T02:27:27.494Z,11.22
2022-10-14T02:29:57.855Z,11.27
2022-10-14T02:32:29.243Z,11.25
2022-10-14T02:35:00.391Z,11.28
2022-10-14T02:37:30.670Z,11.34
2022-10-14T02:40:11.036Z,11.35
2022-10-14T02:42:38.796Z,11.27
2022-10-14T02:45:08.842Z,11.28
2022-10-14T02:47:38.071Z,11.30
2022-10-14T02:50:07.312Z,11.23
2022-10-14T02:52:35.098Z,11.26
2022-10-14T02:55:02.942Z,11.36
2022-10-14T02:57:34.806Z,11.39
2022-10-14T03:02:57.189Z,11.48
2022-10-14T03:05:27.115Z,11.43
2022-10-14T03:07:55.669Z,11.49
2022-10-14T03:10:25.395Z,11.42
2022-10-14T03:12:53.322Z,11.48
2022-10-14T03:15:29.461Z,11.49
2022-10-14T03:17:58.896Z,11.49
2022-10-14T03:20:35.953Z,11.44
2022-10-14T03:23:04.976Z,11.54
2022-10-14T03:25:34.876Z,11.57
2022-10-14T03:28:10.059Z,11.69
2022-10-14T03:30:47.477Z,11.76
2022-10-14T03:33:25.891Z,11.75
2022-10-14T03:36:02.059Z,11.69
2022-10-14T03:38:41.640Z,11.71
2022-10-14T03:41:16.624Z,11.70
2022-10-14T03:43:44.539Z,11.79
2022-10-14T03:46:12.688Z,11.69
2022-10-14T03:48:42.207Z,11.71
2022-10-14T03:51:10.646Z,11.65
2022-10-14T03:53:38.664Z,11.74
2022-10-14T03:56:09.075Z,11.66
2022-10-14T03:58:37.161Z,11.60
2022-10-14T04:01:11.564Z,11.63
2022-10-14T04:04:00.711Z,11.67
2022-10-14T04:06:31.080Z,11.71
2022-10-14T04:09:00.981Z,11.69
2022-10-14T04:11:35.043Z,11.58
2022-10-14T04:14:07.317Z,11.65
2022-10-14T04:16:44.934Z,11.66
2022-10-14T04:19:18.509Z,11.63
2022-10-14T04:21:46.727Z,11.61
2022-10-14T04:24:16.928Z,11.56
2022-10-14T04:26:51.549Z,11.53
2022-10-14T04:29:35.081Z,11.53
2022-10-14T04:32:09.100Z,11.56
2022-10-14T04:34:39.408Z,11.59
2022-10-14T04:37:08.786Z,11.53
2022-10-14T04:39:55.111Z,11.53
2022-10-14T04:42:24.102Z,11.50
2022-10-14T04:44:56.805Z,11.51
2022-10-14T04:47:35.342Z,11.53
2022-10-14T04:50:09.803Z,11.61
2022-10-14T04:52:38.989Z,11.58
2022-10-14T04:55:12.115Z,11.50
2022-10-14T04:57:44.222Z,11.60
2022-10-14T05:00:13.873Z,11.53
2022-10-14T05:02:54.767Z,11.49
2022-10-14T05:05:30.657Z,11.55
2022-10-14T05:08:01.075Z,11.53
2022-10-14T05:10:38.007Z,11.52
2022-10-14T05:13:09.927Z,11.57
2022-10-14T05:15:47.054Z,11.53
2022-10-14T05:18:16.519Z,11.53
2022-10-14T05:21:06.705Z,11.48
2022-10-14T05:23:53.307Z,11.50
2022-10-14T05:26:21.778Z,11.48
2022-10-14T05:28:52.842Z,11.58
2022-10-14T05:31:22.631Z,11.58
2022-10-14T05:34:05.010Z,11.53
2022-10-14T05:36:34.701Z,11.48
2022-10-14T05:39:03.387Z,11.46
2022-10-14T05:42:04.155Z,11.63
2022-10-14T05:44:36.473Z,11.79
2022-10-14T05:47:05.596Z,11.94
2022-10-14T05:49:34.017Z,12.07
2022-10-14T05:52:06.296Z,12.05
2022-10-14T05:54:34.909Z,11.99
2022-10-14T05:57:04.841Z,12.01
2022-10-14T05:59:34.872Z,12.02
2022-10-14T06:02:02.876Z,12.02
2022-10-14T06:04:31.120Z,11.88
2022-10-14T06:07:00.238Z,12.03
2022-10-14T06:09:31.685Z,12.09
2022-10-14T06:12:00.652Z,12.07
2022-10-14T06:14:28.571Z,12.11
2022-10-14T06:16:56.360Z,12.15
2022-10-14T06:19:25.241Z,12.36
2022-10-14T06:21:53.151Z,12.35
2022-10-14T06:24:20.974Z,12.35
2022-10-14T06:26:50.293Z,12.33
2022-10-14T06:29:18.653Z,12.47
2022-10-14T06:31:46.455Z,12.50
2022-10-14T06:34:14.230Z,12.57
2022-10-14T06:36:42.009Z,12.69
2022-10-14T06:39:10.885Z,13.06
2022-10-14T06:41:38.646Z,13.03
2022-10-14T06:44:09.386Z,13.42
2022-10-14T06:46:37.198Z,13.60
2022-10-14T06:49:04.992Z,13.52
2022-10-14T06:51:32.732Z,13.64
2022-10-14T06:54:00.524Z,13.49
2022-10-14T06:56:28.400Z,13.48
2022-10-14T06:58:56.330Z,13.88
2022-10-14T07:01:25.570Z,13.99
2022-10-14T07:03:55.917Z,14.03
2022-10-14T07:06:24.741Z,14.03
2022-10-14T07:08:52.454Z,14.28
2022-10-14T07:11:20.269Z,14.10
2022-10-14T07:13:48.181Z,14.37
2022-10-14T07:16:15.990Z,14.12
2022-10-14T07:18:45.222Z,14.50
2022-10-14T07:21:13.049Z,14.45
2022-10-14T07:23:40.865Z,14.36
2022-10-14T07:26:08.826Z,14.65
2022-10-14T07:28:36.864Z,14.98
2022-10-14T07:31:07.052Z,14.88
2022-10-14T07:36:12.338Z,14.28
2022-10-14T07:38:40.425Z,14.34
2022-10-14T07:41:16.857Z,14.29
2022-10-14T07:43:45.649Z,14.23
2022-10-14T07:46:14.995Z,14.29
2022-10-14T07:48:56.761Z,14.27
2022-10-14T07:51:27.248Z,14.23
2022-10-14T07:53:56.035Z,14.77
2022-10-14T07:56:24.304Z,15.34
2022-10-14T07:58:52.551Z,15.05
2022-10-14T08:01:20.899Z,15.06
2022-10-14T08:03:49.542Z,15.22
2022-10-14T08:06:17.852Z,15.29
2022-10-14T08:08:47.080Z,15.02
2022-10-14T08:11:16.965Z,14.99
2022-10-14T08:13:46.260Z,15.29
2022-10-14T08:16:15.962Z,15.43
2022-10-14T08:18:43.829Z,15.45
2022-10-14T08:21:11.892Z,15.59
2022-10-14T08:23:39.636Z,15.54
2022-10-14T08:26:24.828Z,15.80
2022-10-14T08:28:52.665Z,15.73
2022-10-14T08:31:20.677Z,15.46
2022-10-14T08:33:48.911Z,15.58
2022-10-14T08:36:20.415Z,15.46
2022-10-14T08:38:48.531Z,15.21
2022-10-14T08:41:44.180Z,15.60
2022-10-14T08:44:19.081Z,15.81
2022-10-14T08:46:52.526Z,15.69
2022-10-14T08:49:26.017Z,15.83
2022-10-14T08:51:59.724Z,16.09
2022-10-14T08:54:33.388Z,16.16
2022-10-14T08:57:04.344Z,16.27
2022-10-14T08:59:38.210Z,16.05
2022-10-14T09:02:20.318Z,16.38
2022-10-14T09:04:49.757Z,16.42
2022-10-14T09:07:20.416Z,16.66
2022-10-14T09:09:50.843Z,16.66
2022-10-14T09:12:24.487Z,16.78
2022-10-14T09:15:02.667Z,16.85
2022-10-14T09:17:37.987Z,17.01
2022-10-14T09:20:16.629Z,16.73
2022-10-14T09:22:44.567Z,16.58
2022-10-14T09:25:15.403Z,16.28
2022-10-14T09:27:44.710Z,16.47
2022-10-14T09:30:16.530Z,16.64
2022-10-14T09:32:49.180Z,16.93
2022-10-14T09:35:24.090Z,16.86
2022-10-14T09:37:52.761Z,17.09
2022-10-14T09:40:29.820Z,17.25
2022-10-14T09:43:04.124Z,17.23
2022-10-14T09:45:51.771Z,17.22
2022-10-14T09:48:31.679Z,17.43
2022-10-14T09:51:01.916Z,17.48
2022-10-14T09:53:32.610Z,17.59
2022-10-14T09:56:03.310Z,17.79
2022-10-14T09:58:39.127Z,17.55
2022-10-14T10:01:12.820Z,17.47
2022-10-14T10:03:41.210Z,17.54
2022-10-14T10:06:11.089Z,17.85
2022-10-14T10:08:41.230Z,18.02
2022-10-14T10:11:13.770Z,17.92
2022-10-14T10:13:46.298Z,18.09
2022-10-14T10:16:25.931Z,18.21
2022-10-14T10:18:55.468Z,18.21
2022-10-14T10:21:26.342Z,18.05
2022-10-14T10:23:57.391Z,17.64
2022-10-14T10:26:28.397Z,17.59
2022-10-14T10:28:58.952Z,18.07
2022-10-14T10:31:47.074Z,18.33
2022-10-14T10:34:36.576Z,18.53
2022-10-14T10:37:17.098Z,18.74
2022-10-14T10:39:53.816Z,18.35
2022-10-14T10:42:28.033Z,18.25
2022-10-14T10:45:07.986Z,18.32
2022-10-14T10:47:45.606Z,18.47
2022-10-14T10:50:32.777Z,18.77
2022-10-14T10:53:15.525Z,18.81
2022-10-14T10:55:54.232Z,18.65
2022-10-14T10:58:41.640Z,18.61
2022-10-14T11:01:25.986Z,18.54
2022-10-14T11:04:14.734Z,18.81
2022-10-14T11:07:08.886Z,18.94
2022-10-14T11:10:00.713Z,18.81
2022-10-14T11:12:37.226Z,18.67
2022-10-14T11:15:26.469Z,18.45
2022-10-14T11:18:02.468Z,18.21
2022-10-14T11:20:42.830Z,18.48
2022-10-14T11:23:35.972Z,18.54
2022-10-14T11:26:12.349Z,18.46
2022-10-14T11:28:47.428Z,18.57
2022-10-14T11:31:29.219Z,18.63
2022-10-14T11:34:11.421Z,18.77
2022-10-14T11:36:52.526Z,18.87
2022-10-14T11:39:35.622Z,19.09
2022-10-14T11:42:20.839Z,19.08
2022-10-14T11:44:57.457Z,19.06
2022-10-14T11:47:31.876Z,18.91
2022-10-14T11:50:05.919Z,19.26
2022-10-14T11:52:41.675Z,19.05
2022-10-14T11:55:15.235Z,18.73
2022-10-14T11:57:46.829Z,18.97
2022-10-14T12:00:18.673Z,19.04
2022-10-14T12:02:53.823Z,19.08
2022-10-14T12:05:31.535Z,18.86
2022-10-14T12:08:08.689Z,19.12
2022-10-14T12:10:43.604Z,19.08
2022-10-14T12:13:16.629Z,18.84
2022-10-14T12:15:50.455Z,19.25
2022-10-14T12:18:19.552Z,19.15
2022-10-14T12:20:56.017Z,18.95
2022-10-14T12:23:32.936Z,19.28
2022-10-14T12:26:07.589Z,19.13
2022-10-14T12:28:38.739Z,18.95
2022-10-14T12:31:36.466Z,18.67
2022-10-14T12:34:28.768Z,18.57
2022-10-14T12:36:58.055Z,18.34
2022-10-14T12:39:34.603Z,18.25
2022-10-14T12:42:05.190Z,18.27
2022-10-14T12:44:43.232Z,18.23
2022-10-14T12:47:20.009Z,18.32
2022-10-14T12:49:51.103Z,17.86
2022-10-14T12:52:25.237Z,18.08
2022-10-14T12:54:53.874Z,18.22
2022-10-14T12:57:29.694Z,18.16
2022-10-14T13:00:04.344Z,18.30
2022-10-14T13:02:35.181Z,18.32
2022-10-14T13:05:08.457Z,18.32
2022-10-14T13:07:44.665Z,18.19
2022-10-14T13:10:52.458Z,18.12
2022-10-14T13:13:52.808Z,18.19
2022-10-14T13:17:02.097Z,18.16
2022-10-14T13:19:43.454Z,17.92
2022-10-14T13:22:41.462Z,18.02
2022-10-14T13:25:19.105Z,17.72
2022-10-14T13:28:13.249Z,17.36
2022-10-14T13:30:52.466Z,17.32
2022-10-14T13:33:27.725Z,17.29
2022-10-14T13:36:08.655Z,17.13
2022-10-14T13:38:42.710Z,17.10
2022-10-14T13:41:18.475Z,16.93
2022-10-14T13:43:46.439Z,17.08
2022-10-14T13:46:17.682Z,17.03
2022-10-14T13:48:51.433Z,17.07
2022-10-14T13:51:36.947Z,16.95
2022-10-14T13:54:17.329Z,16.73
2022-10-14T13:57:19.903Z,16.06
2022-10-14T14:00:19.508Z,15.64
2022-10-14T14:02:44.515Z,15.11
2022-10-14T14:05:19.921Z,14.65
2022-10-14T14:11:03.646Z,14.37
2022-10-14T14:13:28.728Z,14.30
2022-10-14T14:15:57.344Z,14.26
2022-10-14T14:18:34.001Z,14.24
2022-10-14T14:21:14.089Z,14.33
2022-10-14T14:23:50.505Z,14.46
2022-10-14T14:26:21.331Z,14.47
2022-10-14T14:28:50.051Z,14.46
2022-10-14T14:31:22.955Z,14.34
2022-10-14T14:33:50.796Z,14.30
2022-10-14T14:36:27.453Z,14.21
2022-10-14T14:38:58.809Z,14.23
2022-10-14T14:41:29.717Z,14.36
2022-10-14T14:44:25.744Z,14.44
2022-10-14T14:46:48.911Z,14.49
2022-10-14T14:49:21.468Z,14.52
2022-10-14T14:51:50.462Z,14.51
2022-10-14T14:54:21.070Z,14.44
2022-10-14T14:56:53.368Z,14.34
2022-10-14T14:59:29.033Z,14.33
2022-10-14T15:04:34.864Z,14.48
2022-10-14T15:07:05.754Z,14.51
2022-10-14T15:09:39.346Z,14.42
2022-10-14T15:12:16.829Z,14.44
2022-10-14T15:14:48.468Z,14.46
2022-10-14T15:17:29.237Z,14.39
2022-10-14T15:19:59.953Z,14.40
2022-10-14T15:22:36.565Z,14.37
2022-10-14T15:25:07.585Z,14.44
2022-10-14T15:27:49.991Z,14.47
2022-10-14T15:30:36.571Z,14.52
2022-10-14T15:33:15.869Z,14.47
2022-10-14T15:35:44.668Z,14.56
2022-10-14T15:38:16.303Z,14.44
2022-10-14T15:40:45.286Z,14.39
2022-10-14T15:43:18.018Z,14.42
2022-10-14T15:46:12.743Z,14.51
2022-10-14T15:48:40.922Z,14.57
2022-10-14T15:51:13.330Z,14.55
2022-10-14T15:53:41.151Z,14.54
2022-10-14T15:56:10.192Z,14.48
2022-10-14T15:58:39.907Z,14.43
2022-10-14T16:01:08.126Z,14.44
2022-10-14T16:03:40.832Z,14.39
2022-10-14T16:06:13.694Z,14.38
2022-10-14T16:08:42.643Z,14.39
2022-10-14T16:11:18.425Z,14.37
2022-10-14T16:13:47.807Z,14.30
2022-10-14T16:16:20.146Z,14.27
2022-10-14T16:18:47.951Z,14.23
2022-10-14T16:21:17.578Z,14.21
2022-10-14T16:23:45.632Z,14.12
2022-10-14T16:26:14.399Z,14.08
2022-10-14T16:28:42.329Z,14.00
2022-10-14T16:31:15.115Z,13.90
2022-10-14T16:33:46.071Z,13.82
2022-10-14T16:36:16.467Z,13.75
2022-10-14T16:38:44.562Z,13.78
2022-10-14T16:41:13.297Z,13.79
2022-10-14T16:43:41.229Z,13.83
2022-10-14T16:46:11.717Z,13.85
2022-10-14T16:48:42.651Z,13.79
2022-10-14T16:51:10.838Z,13.90
2022-10-14T16:53:41.736Z,13.85
2022-10-14T16:56:27.730Z,13.85
2022-10-14T16:58:55.987Z,13.84
2022-10-14T17:01:24.076Z,13.71
2022-10-14T17:03:54.533Z,13.69
2022-10-14T17:06:24.094Z,13.63
2022-10-14T17:08:52.888Z,13.60
2022-10-14T17:11:21.342Z,13.60
2022-10-14T17:13:52.420Z,13.60
2022-10-14T17:16:20.391Z,13.57
2022-10-14T17:21:24.343Z,13.55
2022-10-14T17:23:52.345Z,13.57
2022-10-14T17:26:20.649Z,13.54
2022-10-14T17:28:49.781Z,13.50
2022-10-14T17:31:20.178Z,13.51
2022-10-14T17:33:48.611Z,13.53
2022-10-14T17:36:19.606Z,13.55
2022-10-14T17:38:50.774Z,13.51
2022-10-14T17:41:19.671Z,13.52
2022-10-14T17:43:49.716Z,13.48
2022-10-14T17:46:20.776Z,13.45
2022-10-14T17:48:50.839Z,13.47
2022-10-14T17:51:20.298Z,13.47
2022-10-14T17:53:49.570Z,13.46
2022-10-14T17:56:17.395Z,13.49
2022-10-14T17:58:45.280Z,13.49
2022-10-14T18:01:15.849Z,13.48
2022-10-14T18:03:45.383Z,13.46
2022-10-14T18:06:15.517Z,13.45
2022-10-14T18:08:45.292Z,13.42
2022-10-14T18:11:14.632Z,13.47
2022-10-14T18:13:42.632Z,13.44
2022-10-14T18:16:13.228Z,13.41
2022-10-14T18:18:42.564Z,13.38
2022-10-14T18:21:11.527Z,13.41
2022-10-14T18:23:40.992Z,13.41
2022-10-14T18:26:13.279Z,13.41
2022-10-14T18:28:45.132Z,13.42
2022-10-14T18:31:15.443Z,13.40
2022-10-14T18:33:45.146Z,13.42
2022-10-14T18:36:17.916Z,13.42
2022-10-14T18:38:51.029Z,13.43
2022-10-14T18:41:19.203Z,13.44
2022-10-14T18:43:48.817Z,13.47
2022-10-14T18:46:18.359Z,13.50
2022-10-14T18:48:48.196Z,13.50
2022-10-14T18:51:17.632Z,13.51
2022-10-14T18:53:47.653Z,13.52
2022-10-14T18:56:21.485Z,13.47
2022-10-14T18:58:55.112Z,13.44
2022-10-14T19:01:23.268Z,13.46
2022-10-14T19:03:51.768Z,13.46
2022-10-14T19:06:20.461Z,13.52
2022-10-14T19:08:48.723Z,13.57
2022-10-14T19:11:19.695Z,13.60
2022-10-14T19:13:48.505Z,13.63
2022-10-14T19:16:20.168Z,13.63
2022-10-14T19:18:49.000Z,13.64
2022-10-14T19:21:19.408Z,13.64
2022-10-14T19:23:47.354Z,13.67
2022-10-14T19:26:20.503Z,13.62
2022-10-14T19:28:49.796Z,13.61
2022-10-14T19:31:21.282Z,13.57
2022-10-14T19:33:49.924Z,13.57
2022-10-14T19:36:19.753Z,13.53
2022-10-14T19:38:50.199Z,13.56
2022-10-14T19:41:18.199Z,13.53
2022-10-14T19:43:46.063Z,13.51
2022-10-14T19:46:14.985Z,13.53
2022-10-14T19:48:44.218Z,13.52
2022-10-14T19:51:12.066Z,13.53
2022-10-14T19:53:40.226Z,13.47
2022-10-14T19:56:10.140Z,13.51
2022-10-14T19:58:40.981Z,13.51
2022-10-14T20:01:13.677Z,13.50
2022-10-14T20:03:42.031Z,13.50
2022-10-14T20:06:12.907Z,13.48
2022-10-14T20:08:41.147Z,13.47
2022-10-14T20:11:10.710Z,13.47
2022-10-14T20:13:39.124Z,13.53
2022-10-14T20:16:09.422Z,13.52
2022-10-14T20:18:37.598Z,13.48
2022-10-14T20:21:07.704Z,13.48
2022-10-14T20:23:38.226Z,13.50
2022-10-14T20:26:07.751Z,13.51
2022-10-14T20:28:38.707Z,13.55
2022-10-14T20:31:08.732Z,13.54
2022-10-14T20:33:36.549Z,13.55
2022-10-14T20:36:06.847Z,13.65
2022-10-14T20:38:38.116Z,14.28
2022-10-14T20:41:10.719Z,14.92
2022-10-14T20:43:38.815Z,15.01
2022-10-14T20:46:06.885Z,14.95
2022-10-14T20:48:34.929Z,15.11
2022-10-14T20:51:05.703Z,15.00
2022-10-14T20:53:33.938Z,14.98
2022-10-14T20:56:09.217Z,15.24
2022-10-14T20:58:40.446Z,15.27
2022-10-14T21:01:10.210Z,15.17
2022-10-14T21:03:38.384Z,14.94
2022-10-14T21:06:08.534Z,14.75
2022-10-14T21:08:37.294Z,14.75
2022-10-14T21:11:12.133Z,14.44
2022-10-14T21:13:45.102Z,14.46
2022-10-14T21:16:17.715Z,14.41
2022-10-14T21:18:53.732Z,14.52
2022-10-14T21:21:27.717Z,14.47
2022-10-14T21:23:55.658Z,14.52
2022-10-14T21:26:25.236Z,14.99
2022-10-14T21:28:53.124Z,15.01
2022-10-14T21:31:21.342Z,15.04
2022-10-14T21:33:49.588Z,14.91
2022-10-14T21:36:17.572Z,15.00
2022-10-14T21:38:45.684Z,15.05
2022-10-14T21:41:13.784Z,15.32
2022-10-14T21:43:42.986Z,15.09
2022-10-14T21:46:13.628Z,14.95
2022-10-14T21:48:42.647Z,14.90
2022-10-14T21:51:12.597Z,15.17
2022-10-14T21:53:41.591Z,14.93
2022-10-14T21:56:11.919Z,14.77
2022-10-14T21:58:40.206Z,14.62
2022-10-14T22:01:11.395Z,14.61
2022-10-14T22:03:40.331Z,14.43
2022-10-14T22:06:10.929Z,14.43
2022-10-14T22:08:41.024Z,14.19
2022-10-14T22:11:15.977Z,14.32
2022-10-14T22:13:43.901Z,14.22
2022-10-14T22:16:13.894Z,14.12
2022-10-14T22:18:43.531Z,14.07
2022-10-14T22:21:11.772Z,14.12
2022-10-14T22:23:40.400Z,13.93
2022-10-14T22:26:09.646Z,13.86
2022-10-14T22:28:37.561Z,13.61
2022-10-14T22:31:06.456Z,14.01
2022-10-14T22:33:37.707Z,13.68
2022-10-14T22:36:10.454Z,13.82
2022-10-14T22:38:38.962Z,13.93
2022-10-14T22:41:08.717Z,13.95
2022-10-14T22:43:37.547Z,13.62
2022-10-14T22:46:07.725Z,13.26
2022-10-14T22:48:37.492Z,13.12
2022-10-14T22:51:06.515Z,13.04
2022-10-14T22:53:35.296Z,12.99
2022-10-14T22:56:03.924Z,12.91
2022-10-14T22:58:31.919Z,12.89
2022-10-14T23:01:07.240Z,12.87
2022-10-14T23:03:37.200Z,12.95
2022-10-14T23:06:07.151Z,13.00
2022-10-14T23:08:36.081Z,12.90
2022-10-14T23:11:05.306Z,12.85
2022-10-14T23:13:34.261Z,12.78
2022-10-14T23:16:04.005Z,12.76
2022-10-14T23:18:34.980Z,12.71
2022-10-14T23:21:10.400Z,12.68
2022-10-14T23:23:38.136Z,12.66
2022-10-14T23:26:06.219Z,12.70
2022-10-14T23:28:34.038Z,12.62
2022-10-14T23:31:01.901Z,12.58
2022-10-14T23:33:29.727Z,12.61
2022-10-14T23:35:57.465Z,12.58
2022-10-14T23:38:26.565Z,12.52
2022-10-14T23:40:59.006Z,13.47
2022-10-14T23:43:29.827Z,14.19
2022-10-14T23:45:57.600Z,13.69
2022-10-14T23:48:25.688Z,13.14
2022-10-14T23:50:53.503Z,12.78
2022-10-14T23:53:21.822Z,12.64
2022-10-14T23:55:50.941Z,12.52
2022-10-14T23:58:18.745Z,12.46
